createdAt,value
2023-02-05T00:02:00.552Z,50.77
2023-02-05T00:04:02.729Z,51.11
2023-02-05T00:06:05.561Z,51.06
2023-02-05T00:08:07.683Z,51.30
2023-02-05T00:10:10.354Z,51.18
2023-02-05T00:12:12.712Z,51.16
2023-02-05T00:14:17.512Z,51.67
2023-02-05T00:16:22.934Z,51.61
2023-02-05T00:18:25.181Z,51.65
2023-02-05T00:20:28.658Z,51.80
2023-02-05T00:22:30.740Z,50.96
2023-02-05T00:24:32.772Z,51.30
2023-02-05T00:26:37.362Z,51.78
2023-02-05T00:28:39.458Z,51.88
2023-02-05T00:30:42.098Z,51.32
2023-02-05T00:32:44.628Z,51.83
2023-02-05T00:34:46.625Z,51.51
2023-02-05T00:36:48.944Z,51.69
2023-02-05T00:38:51.952Z,51.59
2023-02-05T00:40:54.475Z,51.92
2023-02-05T00:42:56.423Z,51.67
2023-02-05T00:44:58.550Z,51.40
2023-02-05T00:47:00.877Z,51.62
2023-02-05T00:49:03.259Z,52.17
2023-02-05T00:51:05.610Z,51.92
2023-02-05T00:53:07.873Z,51.96
2023-02-05T00:55:10.279Z,51.67
2023-02-05T00:57:12.405Z,51.35
2023-02-05T00:59:14.974Z,51.69
2023-02-05T01:01:18.008Z,52.00
2023-02-05T01:03:20.392Z,52.09
2023-02-05T01:05:22.723Z,51.85
2023-02-05T01:07:24.931Z,51.98
2023-02-05T01:09:26.987Z,51.72
2023-02-05T01:11:29.123Z,51.46
2023-02-05T01:13:31.304Z,51.34
2023-02-05T01:15:33.948Z,51.39
2023-02-05T01:17:36.348Z,51.90
2023-02-05T01:19:38.493Z,50.99
2023-02-05T01:21:41.148Z,50.91
2023-02-05T01:23:43.219Z,50.93
2023-02-05T01:25:46.113Z,51.08
2023-02-05T01:27:49.998Z,50.91
2023-02-05T01:29:52.356Z,51.16
2023-02-05T01:31:54.958Z,51.29
2023-02-05T01:33:57.162Z,50.96
2023-02-05T01:35:59.210Z,51.15
2023-02-05T01:38:01.339Z,51.25
2023-02-05T01:40:04.029Z,51.53
2023-02-05T01:42:25.539Z,51.46
2023-02-05T01:44:30.810Z,51.42
2023-02-05T01:46:35.481Z,51.27
2023-02-05T01:48:46.479Z,50.79
2023-02-05T01:50:55.824Z,50.91
2023-02-05T01:53:02.883Z,51.21
2023-02-05T01:55:07.752Z,51.23
2023-02-05T01:57:21.006Z,51.11
2023-02-05T01:59:30.195Z,51.12
2023-02-05T02:01:33.137Z,51.58
2023-02-05T02:03:36.204Z,51.22
2023-02-05T02:05:38.427Z,50.94
2023-02-05T02:07:41.499Z,51.36
2023-02-05T02:09:46.110Z,51.12
2023-02-05T02:11:49.272Z,51.50
2023-02-05T02:13:55.155Z,51.69
2023-02-05T02:15:58.176Z,51.32
2023-02-05T02:18:21.867Z,51.13
2023-02-05T02:20:33.774Z,51.67
2023-02-05T02:22:55.280Z,51.57
2023-02-05T02:25:03.231Z,51.37
2023-02-05T02:27:28.821Z,51.40
2023-02-05T02:29:40.107Z,51.20
2023-02-05T02:31:49.230Z,50.96
2023-02-05T02:34:07.004Z,50.89
2023-02-05T02:36:25.674Z,51.17
2023-02-05T02:38:42.131Z,51.35
2023-02-05T02:41:15.457Z,51.56
2023-02-05T02:43:35.612Z,50.87
2023-02-05T02:45:47.127Z,51.35
2023-02-05T02:47:53.804Z,51.53
2023-02-05T02:50:03.394Z,51.05
2023-02-05T02:52:09.205Z,51.39
2023-02-05T02:54:17.017Z,50.93
2023-02-05T02:56:20.772Z,50.90
2023-02-05T02:58:32.944Z,50.88
2023-02-05T03:00:38.542Z,51.00
2023-02-05T03:02:43.215Z,51.11
2023-02-05T03:04:52.083Z,51.46
2023-02-05T03:07:01.027Z,51.33
2023-02-05T03:09:23.604Z,51.30
2023-02-05T03:11:26.488Z,51.55
2023-02-05T03:13:29.848Z,51.19
2023-02-05T03:15:35.902Z,50.95
2023-02-05T03:17:39.616Z,51.19
2023-02-05T03:19:41.722Z,51.70
2023-02-05T03:21:49.257Z,51.34
2023-02-05T03:23:52.189Z,50.85
2023-02-05T03:25:54.639Z,51.25
2023-02-05T03:28:04.798Z,51.37
2023-02-05T03:30:10.321Z,51.57
2023-02-05T03:32:33.283Z,51.64
2023-02-05T03:34:47.252Z,51.17
2023-02-05T03:37:25.333Z,51.39
2023-02-05T03:39:55.183Z,50.99
2023-02-05T03:42:09.732Z,51.38
2023-02-05T03:44:23.802Z,50.92
2023-02-05T03:46:37.835Z,51.30
2023-02-05T03:48:55.861Z,51.39
2023-02-05T03:51:23.620Z,51.44
2023-02-05T03:53:33.724Z,51.42
2023-02-05T03:55:46.077Z,51.58
2023-02-05T03:58:06.426Z,51.43
2023-02-05T04:00:10.203Z,51.54
2023-02-05T04:02:22.703Z,51.13
2023-02-05T04:04:25.614Z,51.32
2023-02-05T04:06:27.903Z,51.28
2023-02-05T04:08:30.716Z,50.91
2023-02-05T04:10:32.845Z,51.38
2023-02-05T04:12:37.216Z,51.57
2023-02-05T04:14:40.442Z,51.27
2023-02-05T04:16:42.715Z,51.00
2023-02-05T04:18:45.093Z,51.51
2023-02-05T04:20:47.610Z,51.32
2023-02-05T04:22:52.710Z,51.47
2023-02-05T04:24:55.404Z,51.62
2023-02-05T04:26:57.437Z,51.06
2023-02-05T04:29:00.185Z,51.51
2023-02-05T04:31:07.514Z,51.77
2023-02-05T04:33:09.903Z,51.23
2023-02-05T04:35:13.142Z,51.40
2023-02-05T04:37:17.461Z,50.86
2023-02-05T04:39:19.541Z,51.61
2023-02-05T04:41:22.266Z,51.09
2023-02-05T04:43:24.454Z,51.49
2023-02-05T04:45:31.645Z,51.52
2023-02-05T04:47:34.665Z,51.64
2023-02-05T04:49:36.992Z,51.42
2023-02-05T04:51:39.353Z,51.60
2023-02-05T04:53:41.760Z,51.41
2023-02-05T04:55:44.066Z,50.75
2023-02-05T04:57:46.540Z,51.38
2023-02-05T04:59:48.501Z,51.33
2023-02-05T05:01:50.514Z,51.01
2023-02-05T05:03:52.741Z,51.16
2023-02-05T05:05:54.872Z,51.45
2023-02-05T05:07:59.019Z,51.53
2023-02-05T05:10:01.405Z,51.36
2023-02-05T05:12:06.776Z,51.18
2023-02-05T05:14:08.923Z,51.05
2023-02-05T05:16:12.566Z,50.90
2023-02-05T05:18:17.634Z,51.14
2023-02-05T05:20:20.028Z,51.15
2023-02-05T05:22:22.479Z,51.45
2023-02-05T05:24:27.079Z,51.00
2023-02-05T05:26:31.334Z,51.08
2023-02-05T05:28:34.964Z,51.51
2023-02-05T05:30:41.608Z,51.25
2023-02-05T05:32:43.879Z,51.39
2023-02-05T05:34:46.197Z,51.39
2023-02-05T05:36:48.336Z,51.12
2023-02-05T05:38:53.482Z,51.54
2023-02-05T05:41:21.635Z,51.48
2023-02-05T05:43:42.160Z,50.98
2023-02-05T05:45:44.395Z,51.03
2023-02-05T05:47:46.873Z,50.89
2023-02-05T05:49:50.435Z,51.38
2023-02-05T05:51:52.509Z,50.90
2023-02-05T05:53:55.197Z,50.89
2023-02-05T05:55:57.466Z,51.34
2023-02-05T05:58:02.528Z,51.38
2023-02-05T06:00:05.904Z,51.42
2023-02-05T06:02:14.165Z,51.36
2023-02-05T06:04:16.605Z,51.29
2023-02-05T06:06:18.551Z,51.42
2023-02-05T06:08:20.638Z,51.70
2023-02-05T06:11:37.116Z,51.82
2023-02-05T06:13:40.234Z,51.45
2023-02-05T06:15:42.461Z,51.35
2023-02-05T06:17:47.627Z,51.70
2023-02-05T06:19:49.939Z,51.95
2023-02-05T06:21:52.273Z,51.90
2023-02-05T06:23:56.704Z,51.70
2023-02-05T06:25:58.946Z,51.78
2023-02-05T06:28:06.035Z,51.85
2023-02-05T06:30:09.077Z,51.61
2023-02-05T06:32:11.117Z,51.68
2023-02-05T06:34:16.319Z,51.58
2023-02-05T06:36:18.660Z,51.41
2023-02-05T06:38:23.836Z,51.24
2023-02-05T06:40:28.213Z,51.22
2023-02-05T06:42:30.492Z,50.87
2023-02-05T06:44:33.584Z,51.03
2023-02-05T06:46:35.638Z,50.70
2023-02-05T06:48:37.865Z,51.04
2023-02-05T06:50:39.934Z,50.41
2023-02-05T06:52:42.013Z,50.29
2023-02-05T06:54:44.935Z,50.19
2023-02-05T06:56:48.116Z,49.77
2023-02-05T06:58:50.676Z,49.92
2023-02-05T07:00:52.817Z,49.76
2023-02-05T07:02:55.453Z,49.69
2023-02-05T07:04:57.824Z,49.83
2023-02-05T07:06:59.936Z,49.67
2023-02-05T07:09:05.230Z,49.33
2023-02-05T07:11:07.625Z,49.73
2023-02-05T07:13:09.736Z,49.25
2023-02-05T07:15:12.235Z,49.49
2023-02-05T07:17:14.103Z,49.45
2023-02-05T07:19:16.396Z,49.42
2023-02-05T07:21:18.451Z,49.88
2023-02-05T07:23:20.937Z,49.36
2023-02-05T07:25:23.346Z,48.90
2023-02-05T07:27:25.659Z,49.44
2023-02-05T07:29:28.573Z,48.71
2023-02-05T07:31:31.140Z,48.69
2023-02-05T07:33:34.200Z,49.04
2023-02-05T07:35:39.497Z,48.76
2023-02-05T07:37:44.364Z,48.89
2023-02-05T07:39:47.002Z,48.87
2023-02-05T07:41:49.256Z,49.09
2023-02-05T07:44:01.012Z,48.30
2023-02-05T07:46:07.513Z,48.25
2023-02-05T07:48:12.708Z,47.97
2023-02-05T07:50:15.093Z,48.75
2023-02-05T07:52:17.538Z,48.70
2023-02-05T07:54:19.706Z,48.36
2023-02-05T07:56:22.234Z,48.51
2023-02-05T07:58:24.504Z,48.26
2023-02-05T08:00:26.769Z,48.09
2023-02-05T08:02:28.771Z,48.34
2023-02-05T08:04:31.008Z,47.31
2023-02-05T08:06:34.253Z,48.06
2023-02-05T08:08:36.395Z,47.85
2023-02-05T08:10:38.495Z,48.54
2023-02-05T08:12:40.736Z,48.54
2023-02-05T08:14:45.512Z,48.23
2023-02-05T08:16:47.958Z,47.93
2023-02-05T08:18:51.305Z,47.86
2023-02-05T08:20:56.524Z,47.74
2023-02-05T08:22:58.686Z,47.90
2023-02-05T08:25:00.644Z,47.81
2023-02-05T08:27:04.504Z,47.69
2023-02-05T08:29:08.355Z,47.09
2023-02-05T08:31:12.963Z,47.40
2023-02-05T08:33:15.175Z,47.35
2023-02-05T08:35:18.418Z,47.67
2023-02-05T08:37:20.482Z,47.74
2023-02-05T08:39:22.734Z,47.64
2023-02-05T08:41:24.863Z,47.76
2023-02-05T08:43:26.776Z,47.82
2023-02-05T08:45:30.672Z,47.77
2023-02-05T08:47:32.885Z,47.75
2023-02-05T08:49:35.203Z,47.57
2023-02-05T08:51:38.171Z,47.68
2023-02-05T08:53:41.155Z,47.64
2023-02-05T08:55:43.252Z,47.28
2023-02-05T08:57:45.562Z,45.94
2023-02-05T08:59:48.723Z,47.21
2023-02-05T09:01:50.851Z,47.71
2023-02-05T09:03:52.926Z,47.01
2023-02-05T09:05:55.096Z,47.56
2023-02-05T09:07:59.226Z,47.13
2023-02-05T09:10:06.508Z,47.31
2023-02-05T09:12:10.982Z,47.18
2023-02-05T09:14:14.045Z,47.06
2023-02-05T09:16:15.824Z,47.12
2023-02-05T09:18:18.409Z,46.50
2023-02-05T09:20:20.482Z,47.32
2023-02-05T09:22:22.650Z,47.71
2023-02-05T09:24:25.254Z,46.31
2023-02-05T09:26:27.365Z,46.50
2023-02-05T09:28:29.455Z,46.53
2023-02-05T09:30:31.971Z,47.42
2023-02-05T09:32:34.321Z,47.16
2023-02-05T09:34:36.404Z,46.30
2023-02-05T09:36:40.526Z,45.77
2023-02-05T09:38:42.953Z,46.02
2023-02-05T09:40:51.669Z,45.89
2023-02-05T09:43:02.913Z,46.67
2023-02-05T09:45:16.910Z,46.43
2023-02-05T09:47:42.583Z,46.17
2023-02-05T09:50:11.554Z,45.87
2023-02-05T09:52:40.464Z,46.12
2023-02-05T09:54:46.851Z,46.11
2023-02-05T09:56:50.741Z,45.83
2023-02-05T09:58:56.174Z,45.71
2023-02-05T10:01:04.096Z,45.61
2023-02-05T10:03:50.158Z,45.63
2023-02-05T10:06:11.013Z,45.41
2023-02-05T10:08:26.930Z,44.70
2023-02-05T10:10:45.924Z,45.57
2023-02-05T10:13:19.683Z,45.31
2023-02-05T10:15:50.044Z,45.45
2023-02-05T10:18:04.885Z,45.61
2023-02-05T10:20:07.453Z,45.46
2023-02-05T10:22:22.248Z,45.02
2023-02-05T10:24:58.933Z,44.84
2023-02-05T10:27:09.968Z,45.33
2023-02-05T10:29:21.340Z,45.98
2023-02-05T10:32:03.474Z,44.46
2023-02-05T10:34:43.757Z,44.12
2023-02-05T10:36:51.128Z,44.32
2023-02-05T10:38:57.998Z,44.22
2023-02-05T10:41:07.834Z,43.27
2023-02-05T10:43:26.034Z,44.27
2023-02-05T10:45:30.050Z,44.55
2023-02-05T10:47:35.013Z,43.89
2023-02-05T10:49:52.190Z,44.26
2023-02-05T10:51:55.151Z,44.40
2023-02-05T10:54:00.688Z,44.30
2023-02-05T10:56:04.945Z,44.56
2023-02-05T10:58:37.550Z,43.06
2023-02-05T11:00:40.638Z,43.23
2023-02-05T11:02:46.343Z,44.02
2023-02-05T11:05:01.686Z,43.29
2023-02-05T11:07:06.528Z,43.96
2023-02-05T11:09:26.883Z,43.32
2023-02-05T11:11:32.226Z,42.84
2023-02-05T11:13:41.980Z,42.41
2023-02-05T11:16:04.060Z,42.24
2023-02-05T11:18:22.178Z,42.36
2023-02-05T11:20:35.615Z,42.22
2023-02-05T11:22:41.705Z,42.79
2023-02-05T11:24:44.085Z,42.34
2023-02-05T11:26:49.576Z,43.37
2023-02-05T11:28:52.663Z,43.63
2023-02-05T11:30:55.761Z,43.31
2023-02-05T11:40:55.005Z,43.81
2023-02-05T11:43:02.381Z,43.48
2023-02-05T11:45:04.712Z,43.06
2023-02-05T11:47:08.454Z,43.09
2023-02-05T11:49:22.176Z,43.41
2023-02-05T11:51:36.053Z,43.16
2023-02-05T11:53:45.673Z,42.45
2023-02-05T11:55:55.306Z,43.14
2023-02-05T11:58:03.676Z,41.92
2023-02-05T12:00:09.279Z,42.88
2023-02-05T12:02:29.099Z,42.90
2023-02-05T12:04:44.523Z,43.67
2023-02-05T12:07:15.620Z,43.90
2023-02-05T12:09:23.650Z,43.92
2023-02-05T12:12:04.315Z,43.45
2023-02-05T12:14:19.249Z,43.60
2023-02-05T12:16:33.112Z,43.74
2023-02-05T12:18:56.340Z,43.18
2023-02-05T12:21:14.484Z,42.88
2023-02-05T12:23:27.814Z,43.60
2023-02-05T12:25:47.700Z,42.58
2023-02-05T12:28:33.813Z,42.72
2023-02-05T12:31:00.288Z,43.03
2023-02-05T12:33:49.109Z,41.20
2023-02-05T12:36:13.179Z,42.43
2023-02-05T12:38:31.988Z,42.80
2023-02-05T12:40:42.713Z,42.44
2023-02-05T12:43:23.748Z,42.72
2023-02-05T12:45:49.141Z,42.10
2023-02-05T12:48:06.269Z,42.72
2023-02-05T12:50:40.079Z,42.78
2023-02-05T12:52:53.029Z,42.93
2023-02-05T12:55:01.036Z,42.35
2023-02-05T12:57:12.078Z,42.22
2023-02-05T12:59:33.948Z,41.22
2023-02-05T13:01:42.550Z,41.94
2023-02-05T13:03:55.346Z,41.63
2023-02-05T13:06:06.829Z,41.77
2023-02-05T13:08:19.658Z,41.75
2023-02-05T13:10:25.539Z,41.23
2023-02-05T13:12:34.491Z,42.28
2023-02-05T13:15:13.746Z,42.59
2023-02-05T13:17:26.670Z,42.20
2023-02-05T13:19:34.183Z,42.19
2023-02-05T13:21:55.571Z,42.04
2023-02-05T13:24:31.730Z,41.72
2023-02-05T13:27:04.022Z,42.06
2023-02-05T13:29:12.690Z,41.41
2023-02-05T13:31:17.884Z,42.11
2023-02-05T13:33:20.601Z,42.18
2023-02-05T13:35:24.086Z,41.67
2023-02-05T13:37:47.922Z,42.03
2023-02-05T13:40:00.534Z,41.63
2023-02-05T13:42:40.036Z,41.77
2023-02-05T13:45:03.572Z,41.97
2023-02-05T13:47:40.704Z,41.18
2023-02-05T13:50:24.956Z,41.83
2023-02-05T13:52:41.840Z,41.97
2023-02-05T13:55:20.620Z,41.93
2023-02-05T13:57:57.119Z,41.46
2023-02-05T14:00:01.111Z,42.39
2023-02-05T14:02:04.264Z,42.51
2023-02-05T14:04:22.475Z,42.44
2023-02-05T14:06:28.785Z,42.95
2023-02-05T14:08:38.140Z,42.33
2023-02-05T14:10:45.253Z,42.47
2023-02-05T14:12:47.344Z,43.14
2023-02-05T14:15:17.403Z,42.54
2023-02-05T14:17:28.290Z,43.43
2023-02-05T14:19:33.024Z,43.27
2023-02-05T14:21:34.934Z,43.37
2023-02-05T14:23:49.242Z,42.70
2023-02-05T14:26:03.802Z,43.00
2023-02-05T14:28:08.799Z,42.64
2023-02-05T14:30:29.791Z,43.53
2023-02-05T14:32:31.829Z,43.84
2023-02-05T14:34:33.786Z,43.36
2023-02-05T14:36:38.594Z,43.52
2023-02-05T14:38:45.436Z,43.34
2023-02-05T14:41:06.938Z,43.25
2023-02-05T14:43:21.835Z,43.80
2023-02-05T14:45:27.920Z,43.19
2023-02-05T14:47:35.949Z,43.30
2023-02-05T14:49:43.568Z,43.63
2023-02-05T14:51:59.369Z,43.63
2023-02-05T14:54:23.509Z,43.32
2023-02-05T14:56:34.394Z,43.57
2023-02-05T14:58:41.100Z,43.95
2023-02-05T15:00:44.415Z,44.40
2023-02-05T15:03:08.017Z,44.29
2023-02-05T15:05:19.447Z,44.29
2023-02-05T15:07:27.102Z,44.35
2023-02-05T15:09:44.310Z,44.77
2023-02-05T15:12:22.478Z,43.65
2023-02-05T15:14:35.604Z,44.10
2023-02-05T15:16:38.431Z,44.26
2023-02-05T15:19:01.256Z,44.38
2023-02-05T15:21:05.298Z,44.01
2023-02-05T15:23:21.779Z,43.90
2023-02-05T15:25:53.167Z,44.51
2023-02-05T15:28:31.026Z,44.22
2023-02-05T15:31:18.461Z,44.57
2023-02-05T15:33:33.367Z,44.97
2023-02-05T15:35:37.807Z,45.03
2023-02-05T15:37:49.253Z,44.57
2023-02-05T15:39:57.156Z,44.54
2023-02-05T15:42:01.562Z,45.10
2023-02-05T15:44:04.549Z,45.04
2023-02-05T15:46:08.396Z,45.20
2023-02-05T15:48:10.846Z,45.04
2023-02-05T15:50:15.141Z,44.99
2023-02-05T15:52:24.919Z,44.77
2023-02-05T15:54:27.569Z,45.47
2023-02-05T15:56:42.414Z,45.01
2023-02-05T15:59:02.746Z,45.93
2023-02-05T16:01:05.059Z,45.82
2023-02-05T16:03:23.573Z,45.48
2023-02-05T16:05:27.309Z,45.66
2023-02-05T16:07:36.224Z,45.83
2023-02-05T16:09:45.762Z,46.21
2023-02-05T16:11:48.871Z,45.93
2023-02-05T16:14:03.021Z,45.68
2023-02-05T16:16:10.534Z,45.77
2023-02-05T16:18:32.197Z,45.58
2023-02-05T16:20:38.055Z,46.17
2023-02-05T16:22:49.600Z,46.08
2023-02-05T16:24:58.069Z,46.07
2023-02-05T16:27:15.455Z,45.94
2023-02-05T16:29:47.069Z,45.97
2023-02-05T16:31:58.115Z,45.85
2023-02-05T16:34:00.276Z,46.01
2023-02-05T16:36:09.702Z,46.20
2023-02-05T16:38:17.223Z,46.47
2023-02-05T16:40:43.220Z,46.54
2023-02-05T16:42:46.429Z,46.73
2023-02-05T16:44:49.701Z,46.36
2023-02-05T16:47:11.752Z,46.63
2023-02-05T16:49:26.150Z,47.00
2023-02-05T16:51:35.922Z,46.91
2023-02-05T16:53:38.206Z,47.18
2023-02-05T16:55:43.019Z,47.16
2023-02-05T16:57:47.643Z,47.29
2023-02-05T17:00:00.054Z,47.47
2023-02-05T17:02:03.628Z,47.17
2023-02-05T17:04:06.589Z,47.00
2023-02-05T17:06:14.270Z,47.52
2023-02-05T17:08:16.853Z,47.66
2023-02-05T17:10:22.101Z,47.49
2023-02-05T17:12:37.598Z,47.43
2023-02-05T17:14:39.738Z,47.50
2023-02-05T17:16:43.008Z,47.98
2023-02-05T17:18:57.779Z,48.30
2023-02-05T17:21:22.200Z,48.02
2023-02-05T17:23:24.526Z,47.73
2023-02-05T17:25:28.424Z,47.96
2023-02-05T17:27:37.809Z,47.90
2023-02-05T17:29:40.325Z,48.29
2023-02-05T17:31:43.190Z,48.10
2023-02-05T17:33:50.858Z,48.29
2023-02-05T17:35:52.992Z,48.42
2023-02-05T17:37:55.020Z,48.55
2023-02-05T17:39:58.051Z,48.27
2023-02-05T17:42:07.770Z,48.40
2023-02-05T17:44:12.823Z,48.27
2023-02-05T17:46:15.259Z,48.39
2023-02-05T17:48:18.248Z,47.84
2023-02-05T17:50:20.481Z,48.08
2023-02-05T17:52:22.678Z,48.36
2023-02-05T17:54:26.363Z,48.85
2023-02-05T17:56:28.564Z,48.57
2023-02-05T17:58:30.868Z,48.14
2023-02-05T18:00:33.534Z,48.18
2023-02-05T18:02:35.944Z,48.26
2023-02-05T18:04:38.425Z,48.65
2023-02-05T18:06:42.845Z,48.56
2023-02-05T18:08:44.870Z,49.04
2023-02-05T18:10:46.776Z,48.61
2023-02-05T18:12:48.851Z,49.28
2023-02-05T18:14:50.993Z,48.78
2023-02-05T18:16:53.231Z,48.81
2023-02-05T18:18:55.417Z,48.76
2023-02-05T18:21:01.511Z,49.00
2023-02-05T18:23:03.928Z,49.41
2023-02-05T18:25:06.604Z,49.22
2023-02-05T18:27:09.080Z,49.29
2023-02-05T18:29:11.088Z,49.31
2023-02-05T18:31:14.668Z,49.25
2023-02-05T18:33:16.856Z,49.33
2023-02-05T18:35:18.883Z,49.43
2023-02-05T18:37:20.804Z,49.18
2023-02-05T18:39:23.438Z,48.90
2023-02-05T18:41:28.760Z,49.65
2023-02-05T18:43:30.794Z,49.67
2023-02-05T18:45:33.112Z,49.63
2023-02-05T18:47:35.328Z,49.38
2023-02-05T18:49:37.755Z,48.91
2023-02-05T18:51:39.893Z,48.92
2023-02-05T18:53:43.337Z,49.02
2023-02-05T18:55:45.482Z,48.74
2023-02-05T18:57:47.521Z,48.49
2023-02-05T18:59:49.789Z,48.47
2023-02-05T19:01:52.935Z,48.28
2023-02-05T19:03:55.890Z,48.49
2023-02-05T19:06:04.058Z,48.28
2023-02-05T19:08:06.629Z,47.90
2023-02-05T19:10:08.818Z,48.33
2023-02-05T19:12:13.424Z,47.73
2023-02-05T19:14:18.467Z,47.80
2023-02-05T19:16:20.652Z,47.89
2023-02-05T19:18:25.297Z,47.52
2023-02-05T19:20:27.401Z,47.69
2023-02-05T19:22:29.686Z,47.61
2023-02-05T19:24:31.914Z,48.05
2023-02-05T19:26:36.061Z,47.35
2023-02-05T19:28:38.080Z,47.48
2023-02-05T19:30:41.956Z,47.20
2023-02-05T19:32:44.624Z,46.99
2023-02-05T19:34:47.081Z,46.86
2023-02-05T19:36:49.802Z,47.34
2023-02-05T19:38:51.937Z,47.21
2023-02-05T19:40:54.176Z,47.15
2023-02-05T19:42:56.898Z,47.13
2023-02-05T19:44:59.193Z,46.95
2023-02-05T19:47:01.228Z,46.77
2023-02-05T19:49:11.722Z,46.77
2023-02-05T19:51:14.956Z,46.41
2023-02-05T19:53:18.634Z,46.61
2023-02-05T19:55:20.545Z,46.81
2023-02-05T19:57:23.013Z,46.92
2023-02-05T19:59:26.902Z,46.55
2023-02-05T20:01:31.801Z,47.03
2023-02-05T20:03:34.010Z,47.01
2023-02-05T20:05:37.190Z,46.95
2023-02-05T20:07:39.366Z,47.31
2023-02-05T20:09:41.600Z,47.10
2023-02-05T20:11:46.847Z,47.32
2023-02-05T20:13:49.377Z,47.07
2023-02-05T20:15:51.609Z,47.21
2023-02-05T20:17:53.896Z,47.45
2023-02-05T20:20:10.136Z,47.51
2023-02-05T20:22:14.568Z,47.35
2023-02-05T20:24:16.837Z,47.60
2023-02-05T20:26:22.132Z,47.62
2023-02-05T20:28:27.330Z,47.66
2023-02-05T20:30:48.185Z,47.69
2023-02-05T20:36:47.588Z,48.31
2023-02-05T20:38:49.492Z,47.86
2023-02-05T20:40:51.347Z,48.27
2023-02-05T20:42:53.559Z,48.09
2023-02-05T20:44:55.743Z,48.49
2023-02-05T20:46:57.885Z,48.34
2023-02-05T20:49:00.911Z,48.35
2023-02-05T20:51:11.507Z,48.02
2023-02-05T20:53:14.227Z,47.94
2023-02-05T20:55:16.751Z,48.08
2023-02-05T20:57:20.468Z,48.25
2023-02-05T20:59:23.033Z,48.24
2023-02-05T21:01:26.900Z,48.11
2023-02-05T21:03:29.233Z,48.63
2023-02-05T21:05:32.121Z,48.36
2023-02-05T21:07:36.138Z,48.58
2023-02-05T21:09:38.119Z,48.69
2023-02-05T21:11:40.178Z,48.57
2023-02-05T21:13:43.687Z,48.93
2023-02-05T21:15:57.168Z,48.70
2023-02-05T21:17:59.249Z,48.66
2023-02-05T21:20:03.375Z,48.81
2023-02-05T21:22:06.011Z,48.84
2023-02-05T21:24:12.890Z,49.02
2023-02-05T21:26:21.204Z,49.19
2023-02-05T21:28:23.922Z,48.85
2023-02-05T21:30:26.208Z,49.10
2023-02-05T21:32:28.530Z,48.70
2023-02-05T21:34:30.961Z,49.05
2023-02-05T21:36:34.188Z,48.72
2023-02-05T21:38:37.788Z,49.53
2023-02-05T21:40:39.895Z,49.64
2023-02-05T21:42:42.156Z,49.51
2023-02-05T21:44:49.358Z,49.38
2023-02-05T21:46:54.028Z,49.51
2023-02-05T21:48:57.744Z,49.26
2023-02-05T21:51:00.367Z,49.65
2023-02-05T21:53:02.459Z,49.44
2023-02-05T21:55:04.833Z,49.51
2023-02-05T21:57:08.517Z,49.71
2023-02-05T21:59:12.446Z,49.64
2023-02-05T22:01:29.362Z,49.78
2023-02-05T22:03:32.192Z,49.51
2023-02-05T22:05:34.845Z,49.75
2023-02-05T22:07:37.349Z,49.71
2023-02-05T22:09:39.559Z,49.60
2023-02-05T22:11:42.432Z,50.03
2023-02-05T22:13:47.951Z,50.09
2023-02-05T22:15:50.017Z,49.79
2023-02-05T22:17:51.922Z,49.95
2023-02-05T22:19:54.408Z,49.96
2023-02-05T22:21:56.402Z,49.90
2023-02-05T22:24:00.802Z,50.14
2023-02-05T22:26:03.217Z,50.00
2023-02-05T22:28:05.707Z,49.70
2023-02-05T22:30:08.557Z,49.24
2023-02-05T22:32:11.501Z,49.64
2023-02-05T22:34:13.910Z,49.34
2023-02-05T22:36:18.111Z,49.01
2023-02-05T22:38:20.351Z,49.19
2023-02-05T22:40:22.499Z,49.37
2023-02-05T22:42:25.016Z,49.37
2023-02-05T22:44:27.175Z,49.86
2023-02-05T22:46:34.125Z,50.03
2023-02-05T22:48:37.999Z,49.77
2023-02-05T22:50:41.679Z,49.29
2023-02-05T22:52:44.188Z,49.35
2023-02-05T22:54:46.129Z,49.16
2023-02-05T22:56:48.235Z,48.99
2023-02-05T22:58:51.729Z,48.71
2023-02-05T23:00:53.987Z,49.06
2023-02-05T23:03:00.032Z,48.84
2023-02-05T23:05:02.072Z,48.70
2023-02-05T23:07:04.413Z,49.04
2023-02-05T23:09:09.375Z,48.82
2023-02-05T23:11:13.748Z,48.63
2023-02-05T23:13:16.267Z,48.63
2023-02-05T23:15:18.381Z,48.60
2023-02-05T23:17:20.434Z,48.87
2023-02-05T23:19:22.769Z,48.77
2023-02-05T23:21:28.966Z,48.87
2023-02-05T23:23:31.011Z,48.96
2023-02-05T23:25:36.876Z,48.82
2023-02-05T23:27:41.181Z,48.93
2023-02-05T23:29:43.356Z,48.86
2023-02-05T23:31:45.595Z,48.89
2023-02-05T23:33:47.932Z,48.78
2023-02-05T23:35:49.959Z,48.56
2023-02-05T23:37:51.907Z,49.10
2023-02-05T23:39:53.823Z,48.91
2023-02-05T23:41:55.809Z,48.83
2023-02-05T23:43:57.784Z,48.54
2023-02-05T23:46:00.320Z,48.97
2023-02-05T23:48:03.002Z,48.94
2023-02-05T23:50:05.647Z,48.83
2023-02-05T23:52:07.651Z,48.90
2023-02-05T23:54:11.516Z,49.30
2023-02-05T23:56:13.581Z,49.20
2023-02-05T23:58:16.191Z,49.36
